sensor_id;sensor_type;location;lat;lon;timestamp;P1;durP1;ratioP1;P2;durP2;ratioP2
58017;SDS011;43810;50.860;19.226;2023-07-13T00:01:46;13.10;;;8.05;;
58017;SDS011;43810;50.860;19.226;2023-07-13T00:04:16;11.93;;;7.47;;
58017;SDS011;43810;50.860;19.226;2023-07-13T00:06:43;12.65;;;8.20;;
58017;SDS011;43810;50.860;19.226;2023-07-13T00:09:11;10.52;;;7.72;;
58017;SDS011;43810;50.860;19.226;2023-07-13T00:11:38;13.10;;;8.57;;
58017;SDS011;43810;50.860;19.226;2023-07-13T00:14:05;13.05;;;7.65;;
58017;SDS011;43810;50.860;19.226;2023-07-13T00:16:31;11.95;;;8.23;;
58017;SDS011;43810;50.860;19.226;2023-07-13T00:18:58;13.23;;;8.00;;
58017;SDS011;43810;50.860;19.226;2023-07-13T00:21:25;10.27;;;7.85;;
58017;SDS011;43810;50.860;19.226;2023-07-13T00:23:52;9.73;;;7.80;;
58017;SDS011;43810;50.860;19.226;2023-07-13T00:26:18;11.27;;;8.93;;
58017;SDS011;43810;50.860;19.226;2023-07-13T00:28:44;10.88;;;8.20;;
58017;SDS011;43810;50.860;19.226;2023-07-13T00:31:10;15.35;;;8.48;;
58017;SDS011;43810;50.860;19.226;2023-07-13T00:33:37;17.75;;;8.52;;
58017;SDS011;43810;50.860;19.226;2023-07-13T00:36:03;13.63;;;8.70;;
58017;SDS011;43810;50.860;19.226;2023-07-13T00:38:29;12.93;;;10.07;;
58017;SDS011;43810;50.860;19.226;2023-07-13T00:40:55;21.40;;;12.05;;
58017;SDS011;43810;50.860;19.226;2023-07-13T00:43:22;20.10;;;12.50;;
58017;SDS011;43810;50.860;19.226;2023-07-13T00:48:16;18.50;;;12.75;;
58017;SDS011;43810;50.860;19.226;2023-07-13T00:50:46;22.77;;;12.93;;
58017;SDS011;43810;50.860;19.226;2023-07-13T00:53:15;17.75;;;10.80;;
58017;SDS011;43810;50.860;19.226;2023-07-13T00:55:42;16.83;;;11.55;;
58017;SDS011;43810;50.860;19.226;2023-07-13T00:58:08;19.95;;;11.35;;
58017;SDS011;43810;50.860;19.226;2023-07-13T01:00:35;13.48;;;11.05;;
58017;SDS011;43810;50.860;19.226;2023-07-13T01:03:03;13.43;;;10.68;;
58017;SDS011;43810;50.860;19.226;2023-07-13T01:05:30;16.98;;;11.90;;
58017;SDS011;43810;50.860;19.226;2023-07-13T01:07:59;14.98;;;10.82;;
58017;SDS011;43810;50.860;19.226;2023-07-13T01:10:26;15.38;;;10.75;;
58017;SDS011;43810;50.860;19.226;2023-07-13T01:12:52;14.05;;;10.43;;
58017;SDS011;43810;50.860;19.226;2023-07-13T01:15:37;17.20;;;10.32;;
58017;SDS011;43810;50.860;19.226;2023-07-13T01:18:07;16.75;;;10.20;;
58017;SDS011;43810;50.860;19.226;2023-07-13T01:20:34;14.88;;;10.82;;
58017;SDS011;43810;50.860;19.226;2023-07-13T01:23:09;16.80;;;11.30;;
58017;SDS011;43810;50.860;19.226;2023-07-13T01:25:36;15.27;;;10.35;;
58017;SDS011;43810;50.860;19.226;2023-07-13T01:28:04;14.30;;;10.32;;
58017;SDS011;43810;50.860;19.226;2023-07-13T01:30:30;14.65;;;10.15;;
58017;SDS011;43810;50.860;19.226;2023-07-13T01:32:58;13.63;;;9.95;;
58017;SDS011;43810;50.860;19.226;2023-07-13T01:35:24;14.35;;;10.75;;
58017;SDS011;43810;50.860;19.226;2023-07-13T01:37:52;16.00;;;11.00;;
58017;SDS011;43810;50.860;19.226;2023-07-13T01:40:19;14.98;;;10.32;;
58017;SDS011;43810;50.860;19.226;2023-07-13T01:42:45;18.13;;;10.77;;
58017;SDS011;43810;50.860;19.226;2023-07-13T01:45:11;14.10;;;10.57;;
58017;SDS011;43810;50.860;19.226;2023-07-13T01:47:37;12.27;;;9.70;;
58017;SDS011;43810;50.860;19.226;2023-07-13T01:50:03;13.70;;;9.77;;
58017;SDS011;43810;50.860;19.226;2023-07-13T01:52:29;12.95;;;10.25;;
58017;SDS011;43810;50.860;19.226;2023-07-13T01:54:55;16.83;;;10.70;;
58017;SDS011;43810;50.860;19.226;2023-07-13T01:57:21;16.45;;;10.20;;
58017;SDS011;43810;50.860;19.226;2023-07-13T01:59:47;14.90;;;9.10;;
58017;SDS011;43810;50.860;19.226;2023-07-13T02:02:12;16.95;;;8.50;;
58017;SDS011;43810;50.860;19.226;2023-07-13T02:04:38;13.07;;;8.13;;
58017;SDS011;43810;50.860;19.226;2023-07-13T02:07:04;12.30;;;8.20;;
58017;SDS011;43810;50.860;19.226;2023-07-13T02:09:30;12.02;;;8.02;;
58017;SDS011;43810;50.860;19.226;2023-07-13T02:11:56;11.93;;;7.78;;
58017;SDS011;43810;50.860;19.226;2023-07-13T02:14:22;11.00;;;7.50;;
58017;SDS011;43810;50.860;19.226;2023-07-13T02:16:48;9.52;;;7.35;;
58017;SDS011;43810;50.860;19.226;2023-07-13T02:19:14;10.30;;;7.53;;
58017;SDS011;43810;50.860;19.226;2023-07-13T02:21:40;10.63;;;7.03;;
58017;SDS011;43810;50.860;19.226;2023-07-13T02:24:06;11.50;;;6.90;;
58017;SDS011;43810;50.860;19.226;2023-07-13T02:26:32;9.15;;;7.05;;
58017;SDS011;43810;50.860;19.226;2023-07-13T02:28:57;12.25;;;6.90;;
58017;SDS011;43810;50.860;19.226;2023-07-13T02:31:23;10.75;;;7.18;;
58017;SDS011;43810;50.860;19.226;2023-07-13T02:33:49;9.15;;;6.47;;
58017;SDS011;43810;50.860;19.226;2023-07-13T02:36:15;10.70;;;6.60;;
58017;SDS011;43810;50.860;19.226;2023-07-13T02:38:41;6.85;;;6.15;;
58017;SDS011;43810;50.860;19.226;2023-07-13T02:41:08;7.85;;;6.20;;
58017;SDS011;43810;50.860;19.226;2023-07-13T02:43:35;8.75;;;6.68;;
58017;SDS011;43810;50.860;19.226;2023-07-13T02:46:01;10.30;;;7.25;;
58017;SDS011;43810;50.860;19.226;2023-07-13T02:48:33;9.65;;;7.35;;
58017;SDS011;43810;50.860;19.226;2023-07-13T02:50:59;9.73;;;6.72;;
58017;SDS011;43810;50.860;19.226;2023-07-13T02:53:25;10.75;;;6.57;;
58017;SDS011;43810;50.860;19.226;2023-07-13T02:55:51;13.95;;;7.25;;
58017;SDS011;43810;50.860;19.226;2023-07-13T02:58:16;11.48;;;6.95;;
58017;SDS011;43810;50.860;19.226;2023-07-13T03:00:43;10.02;;;6.55;;
58017;SDS011;43810;50.860;19.226;2023-07-13T03:03:11;13.15;;;7.22;;
58017;SDS011;43810;50.860;19.226;2023-07-13T03:05:39;15.52;;;7.90;;
58017;SDS011;43810;50.860;19.226;2023-07-13T03:08:08;25.00;;;9.10;;
58017;SDS011;43810;50.860;19.226;2023-07-13T03:10:37;28.70;;;8.93;;
58017;SDS011;43810;50.860;19.226;2023-07-13T03:13:04;28.70;;;7.25;;
58017;SDS011;43810;50.860;19.226;2023-07-13T03:15:31;9.60;;;6.45;;
58017;SDS011;43810;50.860;19.226;2023-07-13T03:17:56;10.50;;;5.63;;
58017;SDS011;43810;50.860;19.226;2023-07-13T03:20:22;11.93;;;5.28;;
58017;SDS011;43810;50.860;19.226;2023-07-13T03:22:48;13.60;;;5.85;;
58017;SDS011;43810;50.860;19.226;2023-07-13T03:25:14;6.13;;;5.22;;
58017;SDS011;43810;50.860;19.226;2023-07-13T03:27:39;7.28;;;4.97;;
58017;SDS011;43810;50.860;19.226;2023-07-13T03:30:06;11.93;;;5.25;;
58017;SDS011;43810;50.860;19.226;2023-07-13T03:32:32;16.85;;;5.90;;
58017;SDS011;43810;50.860;19.226;2023-07-13T03:34:58;12.95;;;5.57;;
58017;SDS011;43810;50.860;19.226;2023-07-13T03:37:24;11.63;;;5.78;;
58017;SDS011;43810;50.860;19.226;2023-07-13T03:39:50;9.82;;;5.78;;
58017;SDS011;43810;50.860;19.226;2023-07-13T03:42:16;9.32;;;5.38;;
58017;SDS011;43810;50.860;19.226;2023-07-13T03:44:42;8.55;;;5.55;;
58017;SDS011;43810;50.860;19.226;2023-07-13T03:47:11;9.77;;;4.85;;
58017;SDS011;43810;50.860;19.226;2023-07-13T03:49:37;8.30;;;4.88;;
58017;SDS011;43810;50.860;19.226;2023-07-13T03:52:03;7.47;;;4.78;;
58017;SDS011;43810;50.860;19.226;2023-07-13T03:54:29;5.80;;;4.40;;
58017;SDS011;43810;50.860;19.226;2023-07-13T03:56:56;7.50;;;5.07;;
58017;SDS011;43810;50.860;19.226;2023-07-13T03:59:22;5.97;;;4.40;;
58017;SDS011;43810;50.860;19.226;2023-07-13T04:01:47;7.22;;;4.32;;
58017;SDS011;43810;50.860;19.226;2023-07-13T04:04:13;7.60;;;4.25;;
58017;SDS011;43810;50.860;19.226;2023-07-13T04:06:40;6.63;;;3.58;;
58017;SDS011;43810;50.860;19.226;2023-07-13T04:09:06;8.43;;;5.35;;
58017;SDS011;43810;50.860;19.226;2023-07-13T04:11:32;5.68;;;4.85;;
58017;SDS011;43810;50.860;19.226;2023-07-13T04:13:59;6.10;;;4.75;;
58017;SDS011;43810;50.860;19.226;2023-07-13T04:16:24;9.77;;;4.45;;
58017;SDS011;43810;50.860;19.226;2023-07-13T04:18:51;9.25;;;4.93;;
58017;SDS011;43810;50.860;19.226;2023-07-13T04:21:24;6.28;;;4.88;;
58017;SDS011;43810;50.860;19.226;2023-07-13T04:23:50;10.20;;;5.05;;
58017;SDS011;43810;50.860;19.226;2023-07-13T04:26:16;6.07;;;4.82;;
58017;SDS011;43810;50.860;19.226;2023-07-13T04:28:42;8.93;;;4.80;;
58017;SDS011;43810;50.860;19.226;2023-07-13T04:31:08;7.03;;;4.45;;
58017;SDS011;43810;50.860;19.226;2023-07-13T04:33:34;10.82;;;5.07;;
58017;SDS011;43810;50.860;19.226;2023-07-13T04:35:59;6.50;;;4.45;;
58017;SDS011;43810;50.860;19.226;2023-07-13T04:38:28;6.10;;;4.00;;
58017;SDS011;43810;50.860;19.226;2023-07-13T04:40:59;8.77;;;4.47;;
58017;SDS011;43810;50.860;19.226;2023-07-13T04:43:26;6.60;;;4.45;;
58017;SDS011;43810;50.860;19.226;2023-07-13T04:45:53;9.52;;;5.10;;
58017;SDS011;43810;50.860;19.226;2023-07-13T04:48:19;5.40;;;4.38;;
58017;SDS011;43810;50.860;19.226;2023-07-13T04:50:46;7.38;;;4.45;;
58017;SDS011;43810;50.860;19.226;2023-07-13T04:53:12;8.60;;;4.65;;
58017;SDS011;43810;50.860;19.226;2023-07-13T04:55:38;9.57;;;4.82;;
58017;SDS011;43810;50.860;19.226;2023-07-13T04:58:05;10.43;;;4.65;;
58017;SDS011;43810;50.860;19.226;2023-07-13T05:00:30;5.72;;;4.10;;
58017;SDS011;43810;50.860;19.226;2023-07-13T05:02:57;7.53;;;4.55;;
58017;SDS011;43810;50.860;19.226;2023-07-13T05:05:23;7.78;;;4.45;;
58017;SDS011;43810;50.860;19.226;2023-07-13T05:07:50;6.55;;;4.70;;
58017;SDS011;43810;50.860;19.226;2023-07-13T05:10:16;6.00;;;4.15;;
58017;SDS011;43810;50.860;19.226;2023-07-13T05:12:42;9.48;;;4.85;;
58017;SDS011;43810;50.860;19.226;2023-07-13T05:15:08;8.57;;;4.40;;
58017;SDS011;43810;50.860;19.226;2023-07-13T05:17:35;5.22;;;3.83;;
58017;SDS011;43810;50.860;19.226;2023-07-13T05:20:01;7.70;;;4.05;;
58017;SDS011;43810;50.860;19.226;2023-07-13T05:22:27;6.38;;;4.35;;
58017;SDS011;43810;50.860;19.226;2023-07-13T05:24:52;5.97;;;3.78;;
58017;SDS011;43810;50.860;19.226;2023-07-13T05:27:18;9.30;;;4.18;;
58017;SDS011;43810;50.860;19.226;2023-07-13T05:29:44;8.52;;;3.90;;
58017;SDS011;43810;50.860;19.226;2023-07-13T05:32:10;5.20;;;3.63;;
58017;SDS011;43810;50.860;19.226;2023-07-13T05:34:35;5.28;;;3.15;;
58017;SDS011;43810;50.860;19.226;2023-07-13T05:37:01;6.05;;;3.10;;
58017;SDS011;43810;50.860;19.226;2023-07-13T05:39:27;7.03;;;3.50;;
58017;SDS011;43810;50.860;19.226;2023-07-13T05:41:53;3.60;;;3.13;;
58017;SDS011;43810;50.860;19.226;2023-07-13T05:44:19;6.72;;;4.00;;
58017;SDS011;43810;50.860;19.226;2023-07-13T05:46:45;5.45;;;3.67;;
58017;SDS011;43810;50.860;19.226;2023-07-13T05:49:11;8.20;;;4.25;;
58017;SDS011;43810;50.860;19.226;2023-07-13T05:51:37;6.20;;;4.15;;
58017;SDS011;43810;50.860;19.226;2023-07-13T05:54:02;6.60;;;3.85;;
58017;SDS011;43810;50.860;19.226;2023-07-13T05:56:29;7.25;;;4.43;;
58017;SDS011;43810;50.860;19.226;2023-07-13T05:58:56;5.40;;;3.85;;
58017;SDS011;43810;50.860;19.226;2023-07-13T06:01:22;6.10;;;3.95;;
58017;SDS011;43810;50.860;19.226;2023-07-13T06:03:48;6.18;;;3.50;;
58017;SDS011;43810;50.860;19.226;2023-07-13T06:06:15;3.78;;;3.17;;
58017;SDS011;43810;50.860;19.226;2023-07-13T06:08:41;4.03;;;3.40;;
58017;SDS011;43810;50.860;19.226;2023-07-13T06:11:10;5.40;;;3.72;;
58017;SDS011;43810;50.860;19.226;2023-07-13T06:13:39;4.35;;;3.22;;
58017;SDS011;43810;50.860;19.226;2023-07-13T06:16:05;6.55;;;3.70;;
58017;SDS011;43810;50.860;19.226;2023-07-13T06:18:33;4.30;;;3.47;;
58017;SDS011;43810;50.860;19.226;2023-07-13T06:20:59;7.50;;;3.67;;
58017;SDS011;43810;50.860;19.226;2023-07-13T06:23:31;8.88;;;3.30;;
58017;SDS011;43810;50.860;19.226;2023-07-13T06:25:57;5.82;;;3.28;;
58017;SDS011;43810;50.860;19.226;2023-07-13T06:28:23;3.95;;;3.00;;
58017;SDS011;43810;50.860;19.226;2023-07-13T06:30:49;5.47;;;3.22;;
58017;SDS011;43810;50.860;19.226;2023-07-13T06:33:15;3.40;;;3.08;;
58017;SDS011;43810;50.860;19.226;2023-07-13T06:35:42;4.53;;;3.30;;
58017;SDS011;43810;50.860;19.226;2023-07-13T06:38:08;4.90;;;3.35;;
58017;SDS011;43810;50.860;19.226;2023-07-13T06:40:34;7.40;;;3.10;;
58017;SDS011;43810;50.860;19.226;2023-07-13T06:42:59;3.55;;;3.20;;
58017;SDS011;43810;50.860;19.226;2023-07-13T06:45:25;3.58;;;3.10;;
58017;SDS011;43810;50.860;19.226;2023-07-13T06:47:53;3.90;;;3.22;;
58017;SDS011;43810;50.860;19.226;2023-07-13T06:50:19;4.70;;;3.53;;
58017;SDS011;43810;50.860;19.226;2023-07-13T06:52:45;3.88;;;3.17;;
58017;SDS011;43810;50.860;19.226;2023-07-13T06:55:11;4.85;;;3.22;;
58017;SDS011;43810;50.860;19.226;2023-07-13T06:57:39;3.35;;;3.05;;
58017;SDS011;43810;50.860;19.226;2023-07-13T07:00:05;5.97;;;3.33;;
58017;SDS011;43810;50.860;19.226;2023-07-13T07:02:32;3.60;;;3.30;;
58017;SDS011;43810;50.860;19.226;2023-07-13T07:04:57;4.97;;;3.42;;
58017;SDS011;43810;50.860;19.226;2023-07-13T07:07:24;4.00;;;3.22;;
58017;SDS011;43810;50.860;19.226;2023-07-13T07:09:50;4.00;;;3.30;;
58017;SDS011;43810;50.860;19.226;2023-07-13T07:12:16;4.95;;;3.42;;
58017;SDS011;43810;50.860;19.226;2023-07-13T07:14:42;7.10;;;3.72;;
58017;SDS011;43810;50.860;19.226;2023-07-13T07:17:08;4.90;;;4.30;;
58017;SDS011;43810;50.860;19.226;2023-07-13T07:19:34;5.10;;;4.00;;
58017;SDS011;43810;50.860;19.226;2023-07-13T07:22:00;7.22;;;4.60;;
58017;SDS011;43810;50.860;19.226;2023-07-13T07:24:26;11.82;;;5.47;;
58017;SDS011;43810;50.860;19.226;2023-07-13T07:26:52;10.85;;;5.85;;
58017;SDS011;43810;50.860;19.226;2023-07-13T07:29:18;10.00;;;6.38;;
58017;SDS011;43810;50.860;19.226;2023-07-13T07:31:44;13.70;;;7.60;;
58017;SDS011;43810;50.860;19.226;2023-07-13T07:34:10;13.23;;;6.68;;
58017;SDS011;43810;50.860;19.226;2023-07-13T07:36:35;12.07;;;7.47;;
58017;SDS011;43810;50.860;19.226;2023-07-13T07:39:01;9.68;;;6.70;;
58017;SDS011;43810;50.860;19.226;2023-07-13T07:41:27;11.55;;;8.07;;
58017;SDS011;43810;50.860;19.226;2023-07-13T07:43:56;13.75;;;8.43;;
58017;SDS011;43810;50.860;19.226;2023-07-13T07:46:22;14.13;;;9.02;;
58017;SDS011;43810;50.860;19.226;2023-07-13T07:48:48;14.88;;;7.38;;
58017;SDS011;43810;50.860;19.226;2023-07-13T07:51:13;12.77;;;7.85;;
58017;SDS011;43810;50.860;19.226;2023-07-13T07:53:39;13.13;;;7.60;;
58017;SDS011;43810;50.860;19.226;2023-07-13T07:56:05;12.15;;;6.88;;
58017;SDS011;43810;50.860;19.226;2023-07-13T07:58:31;10.98;;;7.03;;
58017;SDS011;43810;50.860;19.226;2023-07-13T08:01:04;12.02;;;7.22;;
58017;SDS011;43810;50.860;19.226;2023-07-13T08:03:34;12.68;;;6.95;;
58017;SDS011;43810;50.860;19.226;2023-07-13T08:06:00;11.32;;;8.23;;
58017;SDS011;43810;50.860;19.226;2023-07-13T08:08:26;10.65;;;7.20;;
58017;SDS011;43810;50.860;19.226;2023-07-13T08:10:52;11.48;;;6.85;;
58017;SDS011;43810;50.860;19.226;2023-07-13T08:13:18;7.65;;;6.72;;
58017;SDS011;43810;50.860;19.226;2023-07-13T08:15:44;9.63;;;7.60;;
58017;SDS011;43810;50.860;19.226;2023-07-13T08:18:12;14.05;;;7.32;;
58017;SDS011;43810;50.860;19.226;2023-07-13T08:20:40;10.05;;;6.47;;
58017;SDS011;43810;50.860;19.226;2023-07-13T08:23:09;12.70;;;6.07;;
58017;SDS011;43810;50.860;19.226;2023-07-13T08:25:35;11.95;;;6.25;;
58017;SDS011;43810;50.860;19.226;2023-07-13T08:28:02;8.75;;;5.38;;
58017;SDS011;43810;50.860;19.226;2023-07-13T08:30:29;7.97;;;4.65;;
58017;SDS011;43810;50.860;19.226;2023-07-13T08:32:57;7.43;;;4.72;;
58017;SDS011;43810;50.860;19.226;2023-07-13T08:35:23;6.13;;;4.78;;
58017;SDS011;43810;50.860;19.226;2023-07-13T08:37:52;6.18;;;4.88;;
58017;SDS011;43810;50.860;19.226;2023-07-13T08:40:23;4.85;;;4.30;;
58017;SDS011;43810;50.860;19.226;2023-07-13T08:42:54;6.75;;;3.95;;
58017;SDS011;43810;50.860;19.226;2023-07-13T08:50:43;6.57;;;3.40;;
58017;SDS011;43810;50.860;19.226;2023-07-13T08:53:20;6.95;;;3.05;;
58017;SDS011;43810;50.860;19.226;2023-07-13T08:55:57;5.30;;;2.70;;
58017;SDS011;43810;50.860;19.226;2023-07-13T08:58:25;2.88;;;2.65;;
58017;SDS011;43810;50.860;19.226;2023-07-13T09:06:23;3.72;;;2.17;;
58017;SDS011;43810;50.860;19.226;2023-07-13T09:09:07;4.93;;;2.28;;
58017;SDS011;43810;50.860;19.226;2023-07-13T09:12:04;4.15;;;2.70;;
58017;SDS011;43810;50.860;19.226;2023-07-13T09:15:03;5.22;;;2.67;;
58017;SDS011;43810;50.860;19.226;2023-07-13T09:17:45;7.32;;;2.80;;
58017;SDS011;43810;50.860;19.226;2023-07-13T09:20:22;5.72;;;2.67;;
58017;SDS011;43810;50.860;19.226;2023-07-13T09:22:55;3.50;;;2.20;;
58017;SDS011;43810;50.860;19.226;2023-07-13T09:27:53;2.53;;;2.03;;
58017;SDS011;43810;50.860;19.226;2023-07-13T09:30:30;4.82;;;2.03;;
58017;SDS011;43810;50.860;19.226;2023-07-13T09:33:04;2.42;;;2.10;;
58017;SDS011;43810;50.860;19.226;2023-07-13T09:35:30;3.83;;;2.33;;
58017;SDS011;43810;50.860;19.226;2023-07-13T09:38:03;2.50;;;1.90;;
58017;SDS011;43810;50.860;19.226;2023-07-13T09:43:13;3.65;;;2.13;;
58017;SDS011;43810;50.860;19.226;2023-07-13T09:45:40;4.40;;;1.90;;
58017;SDS011;43810;50.860;19.226;2023-07-13T09:48:11;4.25;;;2.35;;
58017;SDS011;43810;50.860;19.226;2023-07-13T09:50:47;7.57;;;3.38;;
58017;SDS011;43810;50.860;19.226;2023-07-13T09:53:17;2.47;;;2.20;;
58017;SDS011;43810;50.860;19.226;2023-07-13T09:55:48;2.83;;;2.25;;
58017;SDS011;43810;50.860;19.226;2023-07-13T09:58:21;2.88;;;2.38;;
58017;SDS011;43810;50.860;19.226;2023-07-13T10:00:57;5.97;;;2.63;;
58017;SDS011;43810;50.860;19.226;2023-07-13T10:03:26;5.63;;;2.90;;
58017;SDS011;43810;50.860;19.226;2023-07-13T10:05:53;5.65;;;3.33;;
58017;SDS011;43810;50.860;19.226;2023-07-13T10:11:09;6.10;;;3.00;;
58017;SDS011;43810;50.860;19.226;2023-07-13T10:13:40;5.75;;;3.13;;
58017;SDS011;43810;50.860;19.226;2023-07-13T10:16:09;7.70;;;3.03;;
58017;SDS011;43810;50.860;19.226;2023-07-13T10:18:39;7.38;;;3.45;;
58017;SDS011;43810;50.860;19.226;2023-07-13T10:21:22;7.35;;;3.72;;
58017;SDS011;43810;50.860;19.226;2023-07-13T10:24:02;5.25;;;3.83;;
58017;SDS011;43810;50.860;19.226;2023-07-13T10:26:36;9.00;;;3.80;;
58017;SDS011;43810;50.860;19.226;2023-07-13T10:29:08;6.20;;;3.05;;
58017;SDS011;43810;50.860;19.226;2023-07-13T10:31:39;7.10;;;3.10;;
58017;SDS011;43810;50.860;19.226;2023-07-13T10:34:10;3.70;;;3.00;;
58017;SDS011;43810;50.860;19.226;2023-07-13T10:36:40;5.13;;;2.85;;
58017;SDS011;43810;50.860;19.226;2023-07-13T10:39:16;6.32;;;2.65;;
58017;SDS011;43810;50.860;19.226;2023-07-13T10:41:59;6.60;;;2.80;;
58017;SDS011;43810;50.860;19.226;2023-07-13T10:44:30;5.00;;;2.80;;
58017;SDS011;43810;50.860;19.226;2023-07-13T10:47:18;7.90;;;2.80;;
58017;SDS011;43810;50.860;19.226;2023-07-13T10:49:43;5.07;;;2.35;;
58017;SDS011;43810;50.860;19.226;2023-07-13T10:58:23;4.93;;;2.78;;
58017;SDS011;43810;50.860;19.226;2023-07-13T11:03:33;3.42;;;2.40;;
58017;SDS011;43810;50.860;19.226;2023-07-13T11:06:29;5.95;;;2.88;;
58017;SDS011;43810;50.860;19.226;2023-07-13T11:09:31;4.18;;;2.63;;
58017;SDS011;43810;50.860;19.226;2023-07-13T11:11:56;3.45;;;2.70;;
58017;SDS011;43810;50.860;19.226;2023-07-13T11:14:34;3.53;;;2.70;;
58017;SDS011;43810;50.860;19.226;2023-07-13T11:17:29;7.10;;;2.50;;
58017;SDS011;43810;50.860;19.226;2023-07-13T11:22:42;3.70;;;1.92;;
58017;SDS011;43810;50.860;19.226;2023-07-13T11:25:32;2.92;;;2.20;;
58017;SDS011;43810;50.860;19.226;2023-07-13T11:38:33;2.78;;;2.05;;
58017;SDS011;43810;50.860;19.226;2023-07-13T11:41:07;3.53;;;2.13;;
58017;SDS011;43810;50.860;19.226;2023-07-13T11:43:37;4.40;;;1.80;;
58017;SDS011;43810;50.860;19.226;2023-07-13T11:46:18;3.90;;;2.17;;
58017;SDS011;43810;50.860;19.226;2023-07-13T11:51:23;4.05;;;2.10;;
58017;SDS011;43810;50.860;19.226;2023-07-13T11:53:53;2.90;;;2.22;;
58017;SDS011;43810;50.860;19.226;2023-07-13T11:56:23;3.65;;;2.20;;
58017;SDS011;43810;50.860;19.226;2023-07-13T11:58:52;3.60;;;1.85;;
58017;SDS011;43810;50.860;19.226;2023-07-13T12:01:21;2.67;;;1.83;;
58017;SDS011;43810;50.860;19.226;2023-07-13T12:03:50;6.80;;;2.22;;
58017;SDS011;43810;50.860;19.226;2023-07-13T12:06:29;3.25;;;1.90;;
58017;SDS011;43810;50.860;19.226;2023-07-13T12:08:59;3.05;;;1.60;;
58017;SDS011;43810;50.860;19.226;2023-07-13T12:11:29;3.50;;;1.90;;
58017;SDS011;43810;50.860;19.226;2023-07-13T12:13:55;2.88;;;1.73;;
58017;SDS011;43810;50.860;19.226;2023-07-13T12:16:25;4.22;;;2.22;;
58017;SDS011;43810;50.860;19.226;2023-07-13T12:18:54;3.30;;;2.25;;
58017;SDS011;43810;50.860;19.226;2023-07-13T12:21:24;3.47;;;2.47;;
58017;SDS011;43810;50.860;19.226;2023-07-13T12:23:55;4.28;;;2.80;;
58017;SDS011;43810;50.860;19.226;2023-07-13T12:26:21;4.57;;;2.97;;
58017;SDS011;43810;50.860;19.226;2023-07-13T12:28:48;6.15;;;3.35;;
58017;SDS011;43810;50.860;19.226;2023-07-13T12:31:24;6.87;;;4.60;;
58017;SDS011;43810;50.860;19.226;2023-07-13T12:34:08;5.00;;;3.67;;
58017;SDS011;43810;50.860;19.226;2023-07-13T12:36:38;7.63;;;3.90;;
58017;SDS011;43810;50.860;19.226;2023-07-13T12:39:35;5.63;;;4.10;;
58017;SDS011;43810;50.860;19.226;2023-07-13T12:42:23;10.25;;;6.18;;
58017;SDS011;43810;50.860;19.226;2023-07-13T12:44:56;7.90;;;4.43;;
58017;SDS011;43810;50.860;19.226;2023-07-13T12:47:26;5.43;;;4.30;;
58017;SDS011;43810;50.860;19.226;2023-07-13T12:49:59;8.32;;;4.55;;
58017;SDS011;43810;50.860;19.226;2023-07-13T12:52:30;5.82;;;4.00;;
58017;SDS011;43810;50.860;19.226;2023-07-13T12:55:39;6.40;;;4.35;;
58017;SDS011;43810;50.860;19.226;2023-07-13T12:57:55;7.78;;;3.80;;
58017;SDS011;43810;50.860;19.226;2023-07-13T13:00:31;7.20;;;4.50;;
58017;SDS011;43810;50.860;19.226;2023-07-13T13:03:02;5.93;;;4.35;;
58017;SDS011;43810;50.860;19.226;2023-07-13T13:05:31;7.55;;;5.15;;
58017;SDS011;43810;50.860;19.226;2023-07-13T13:07:58;7.45;;;5.25;;
58017;SDS011;43810;50.860;19.226;2023-07-13T13:10:26;14.55;;;7.40;;
58017;SDS011;43810;50.860;19.226;2023-07-13T13:12:52;8.93;;;5.28;;
58017;SDS011;43810;50.860;19.226;2023-07-13T13:15:18;5.47;;;3.97;;
58017;SDS011;43810;50.860;19.226;2023-07-13T13:17:46;7.32;;;4.30;;
58017;SDS011;43810;50.860;19.226;2023-07-13T13:20:19;5.53;;;3.22;;
58017;SDS011;43810;50.860;19.226;2023-07-13T13:22:46;5.88;;;3.30;;
58017;SDS011;43810;50.860;19.226;2023-07-13T13:25:13;6.40;;;3.05;;
58017;SDS011;43810;50.860;19.226;2023-07-13T13:27:40;5.10;;;2.90;;
58017;SDS011;43810;50.860;19.226;2023-07-13T13:30:13;7.13;;;2.97;;
58017;SDS011;43810;50.860;19.226;2023-07-13T13:32:41;5.28;;;3.20;;
58017;SDS011;43810;50.860;19.226;2023-07-13T13:35:15;4.85;;;2.75;;
58017;SDS011;43810;50.860;19.226;2023-07-13T13:37:43;4.53;;;2.75;;
58017;SDS011;43810;50.860;19.226;2023-07-13T13:43:01;7.20;;;3.03;;
58017;SDS011;43810;50.860;19.226;2023-07-13T13:45:27;3.80;;;2.92;;
58017;SDS011;43810;50.860;19.226;2023-07-13T13:47:53;4.45;;;3.65;;
58017;SDS011;43810;50.860;19.226;2023-07-13T13:50:20;4.85;;;3.20;;
58017;SDS011;43810;50.860;19.226;2023-07-13T13:52:48;4.82;;;3.05;;
58017;SDS011;43810;50.860;19.226;2023-07-13T13:55:14;10.40;;;3.92;;
58017;SDS011;43810;50.860;19.226;2023-07-13T13:57:41;5.93;;;3.63;;
58017;SDS011;43810;50.860;19.226;2023-07-13T14:00:08;4.55;;;3.15;;
58017;SDS011;43810;50.860;19.226;2023-07-13T14:02:44;4.97;;;3.30;;
58017;SDS011;43810;50.860;19.226;2023-07-13T14:05:25;4.88;;;2.97;;
58017;SDS011;43810;50.860;19.226;2023-07-13T14:07:53;5.15;;;3.20;;
58017;SDS011;43810;50.860;19.226;2023-07-13T14:10:19;4.13;;;2.67;;
58017;SDS011;43810;50.860;19.226;2023-07-13T14:12:46;4.93;;;2.90;;
58017;SDS011;43810;50.860;19.226;2023-07-13T14:15:17;3.85;;;2.47;;
58017;SDS011;43810;50.860;19.226;2023-07-13T14:17:46;3.22;;;2.40;;
58017;SDS011;43810;50.860;19.226;2023-07-13T14:20:15;2.60;;;2.30;;
58017;SDS011;43810;50.860;19.226;2023-07-13T14:22:42;2.58;;;2.35;;
58017;SDS011;43810;50.860;19.226;2023-07-13T14:25:12;4.82;;;2.75;;
58017;SDS011;43810;50.860;19.226;2023-07-13T14:27:42;4.25;;;2.50;;
58017;SDS011;43810;50.860;19.226;2023-07-13T14:30:14;4.63;;;2.40;;
58017;SDS011;43810;50.860;19.226;2023-07-13T14:32:41;3.75;;;2.40;;
58017;SDS011;43810;50.860;19.226;2023-07-13T14:35:08;3.05;;;2.40;;
58017;SDS011;43810;50.860;19.226;2023-07-13T14:37:40;2.60;;;2.10;;
58017;SDS011;43810;50.860;19.226;2023-07-13T14:40:21;4.28;;;2.20;;
58017;SDS011;43810;50.860;19.226;2023-07-13T14:42:52;4.07;;;2.40;;
58017;SDS011;43810;50.860;19.226;2023-07-13T14:45:18;4.72;;;2.92;;
58017;SDS011;43810;50.860;19.226;2023-07-13T14:47:46;6.88;;;2.60;;
58017;SDS011;43810;50.860;19.226;2023-07-13T14:50:19;2.97;;;2.67;;
58017;SDS011;43810;50.860;19.226;2023-07-13T14:52:47;3.20;;;2.53;;
58017;SDS011;43810;50.860;19.226;2023-07-13T14:55:14;4.47;;;2.42;;
58017;SDS011;43810;50.860;19.226;2023-07-13T14:57:45;3.38;;;2.15;;
58017;SDS011;43810;50.860;19.226;2023-07-13T15:00:16;3.97;;;2.28;;
58017;SDS011;43810;50.860;19.226;2023-07-13T15:02:48;2.28;;;1.80;;
58017;SDS011;43810;50.860;19.226;2023-07-13T15:05:18;4.35;;;2.20;;
58017;SDS011;43810;50.860;19.226;2023-07-13T15:07:47;2.83;;;1.85;;
58017;SDS011;43810;50.860;19.226;2023-07-13T15:12:41;2.67;;;1.80;;
58017;SDS011;43810;50.860;19.226;2023-07-13T15:15:07;1.88;;;1.65;;
58017;SDS011;43810;50.860;19.226;2023-07-13T15:17:40;3.47;;;2.10;;
58017;SDS011;43810;50.860;19.226;2023-07-13T15:23:00;2.85;;;1.70;;
58017;SDS011;43810;50.860;19.226;2023-07-13T15:25:32;3.08;;;1.90;;
58017;SDS011;43810;50.860;19.226;2023-07-13T15:27:59;3.25;;;1.85;;
58017;SDS011;43810;50.860;19.226;2023-07-13T15:30:28;3.45;;;2.13;;
58017;SDS011;43810;50.860;19.226;2023-07-13T15:32:56;4.47;;;3.40;;